createdAt,value
2023-03-29T00:02:07.910Z,18.20
2023-03-29T00:04:35.336Z,18.70
2023-03-29T00:07:04.626Z,19.48
2023-03-29T00:09:33.480Z,19.05
2023-03-29T00:12:01.909Z,18.42
2023-03-29T00:14:31.031Z,19.92
2023-03-29T00:16:59.212Z,19.83
2023-03-29T00:19:26.758Z,19.65
2023-03-29T00:21:53.772Z,19.45
2023-03-29T00:24:24.010Z,19.42
2023-03-29T00:26:51.204Z,19.35
2023-03-29T00:29:18.345Z,19.90
2023-03-29T00:31:51.501Z,19.77
2023-03-29T00:34:18.536Z,19.88
2023-03-29T00:36:45.512Z,19.67
2023-03-29T00:39:12.699Z,19.55
2023-03-29T00:41:39.674Z,19.27
2023-03-29T00:44:06.607Z,19.77
2023-03-29T00:46:35.136Z,19.67
2023-03-29T00:49:09.745Z,20.00
2023-03-29T00:51:41.482Z,19.05
2023-03-29T00:54:15.053Z,19.23
2023-03-29T00:56:46.093Z,19.02
2023-03-29T00:59:35.712Z,18.85
2023-03-29T01:02:07.312Z,18.40
2023-03-29T01:04:58.684Z,18.40
2023-03-29T01:07:58.154Z,17.90
2023-03-29T01:11:11.532Z,18.42
2023-03-29T01:13:46.301Z,18.48
2023-03-29T01:16:15.834Z,18.38
2023-03-29T01:18:42.842Z,18.75
2023-03-29T01:21:15.923Z,18.23
2023-03-29T01:24:15.443Z,18.60
2023-03-29T01:26:57.612Z,18.00
2023-03-29T01:29:35.478Z,18.15
2023-03-29T01:32:12.176Z,18.50
2023-03-29T01:34:55.457Z,18.25
2023-03-29T01:37:38.979Z,18.42
2023-03-29T01:40:06.582Z,17.73
2023-03-29T01:42:57.906Z,18.13
2023-03-29T01:45:58.695Z,18.73
2023-03-29T01:48:52.853Z,18.67
2023-03-29T01:51:29.974Z,18.05
2023-03-29T01:54:35.113Z,18.80
2023-03-29T01:57:04.839Z,18.77
2023-03-29T01:59:35.171Z,18.55
2023-03-29T02:02:08.352Z,18.98
2023-03-29T02:04:39.981Z,18.90
2023-03-29T02:07:08.981Z,18.70
2023-03-29T02:09:37.764Z,18.23
2023-03-29T02:12:08.464Z,18.48
2023-03-29T02:14:35.706Z,18.35
2023-03-29T02:17:19.082Z,19.02
2023-03-29T02:20:02.351Z,18.63
2023-03-29T02:22:38.017Z,18.85
2023-03-29T02:25:09.061Z,18.50
2023-03-29T02:27:38.051Z,18.98
2023-03-29T02:30:11.044Z,18.98
2023-03-29T02:32:54.955Z,19.63
2023-03-29T02:35:35.082Z,19.40
2023-03-29T02:38:09.200Z,19.80
2023-03-29T02:43:07.783Z,19.17
2023-03-29T02:45:37.102Z,19.67
2023-03-29T02:48:08.249Z,19.02
2023-03-29T02:50:41.200Z,20.20
2023-03-29T02:53:16.215Z,19.90
2023-03-29T02:55:46.247Z,19.60
2023-03-29T02:58:15.553Z,20.35
2023-03-29T03:00:46.993Z,20.63
2023-03-29T03:03:15.772Z,20.30
2023-03-29T03:05:43.546Z,20.13
2023-03-29T03:08:10.487Z,20.48
2023-03-29T03:10:37.659Z,21.10
2023-03-29T03:13:04.650Z,20.45
2023-03-29T03:15:35.747Z,20.48
2023-03-29T03:18:03.936Z,19.73
2023-03-29T03:20:31.321Z,20.38
2023-03-29T03:22:58.592Z,19.95
2023-03-29T03:25:25.644Z,19.90
2023-03-29T03:27:53.279Z,20.00
2023-03-29T03:30:21.001Z,20.10
2023-03-29T03:32:48.063Z,20.02
2023-03-29T03:35:15.492Z,20.23
2023-03-29T03:37:43.012Z,20.65
2023-03-29T03:40:11.871Z,20.02
2023-03-29T03:42:40.325Z,20.10
2023-03-29T03:45:08.835Z,19.35
2023-03-29T03:47:39.428Z,20.05
2023-03-29T03:50:07.162Z,19.70
2023-03-29T03:52:34.065Z,19.83
2023-03-29T03:55:03.019Z,19.70
2023-03-29T03:57:30.078Z,19.98
2023-03-29T03:59:57.618Z,19.98
2023-03-29T04:02:24.654Z,19.48
2023-03-29T04:04:51.645Z,20.45
2023-03-29T04:07:18.904Z,20.88
2023-03-29T04:09:46.051Z,20.83
2023-03-29T04:12:13.045Z,20.63
2023-03-29T04:14:40.547Z,20.65
2023-03-29T04:17:08.042Z,21.77
2023-03-29T04:19:35.118Z,21.25
2023-03-29T04:22:02.075Z,22.55
2023-03-29T04:24:29.097Z,21.13
2023-03-29T04:26:56.071Z,21.58
2023-03-29T04:29:23.056Z,21.23
2023-03-29T04:31:50.065Z,21.92
2023-03-29T04:34:17.328Z,21.35
2023-03-29T04:36:44.340Z,22.38
2023-03-29T04:39:11.290Z,21.70
2023-03-29T04:41:38.280Z,21.50
2023-03-29T04:44:05.498Z,22.20
2023-03-29T04:46:33.416Z,21.73
2023-03-29T04:49:00.490Z,21.40
2023-03-29T04:51:27.644Z,20.83
2023-03-29T04:53:54.718Z,21.42
2023-03-29T04:56:23.210Z,21.67
2023-03-29T04:58:51.056Z,21.13
2023-03-29T05:01:18.174Z,20.83
2023-03-29T05:03:45.263Z,20.45
2023-03-29T05:06:12.754Z,21.73
2023-03-29T05:08:40.971Z,20.65
2023-03-29T05:11:10.334Z,20.95
2023-03-29T05:13:37.978Z,20.98
2023-03-29T05:16:05.448Z,22.05
2023-03-29T05:18:32.587Z,22.27
2023-03-29T05:21:00.419Z,22.00
2023-03-29T05:23:28.992Z,21.38
2023-03-29T05:25:55.977Z,22.23
2023-03-29T05:28:23.048Z,22.23
2023-03-29T05:31:01.454Z,22.23
2023-03-29T05:33:28.856Z,22.13
2023-03-29T05:36:03.843Z,21.52
2023-03-29T05:38:32.945Z,22.15
2023-03-29T05:41:00.937Z,21.58
2023-03-29T05:43:28.360Z,21.58
2023-03-29T05:45:56.540Z,20.85
2023-03-29T05:48:23.977Z,20.55
2023-03-29T05:50:53.592Z,20.13
2023-03-29T05:53:22.472Z,19.85
2023-03-29T05:55:50.094Z,20.00
2023-03-29T05:58:20.614Z,19.88
2023-03-29T06:00:52.144Z,19.42
2023-03-29T06:03:23.776Z,19.70
2023-03-29T06:05:59.661Z,19.05
2023-03-29T06:08:28.612Z,19.33
2023-03-29T06:11:03.064Z,18.65
2023-03-29T06:13:33.585Z,18.35
2023-03-29T06:16:01.340Z,18.55
2023-03-29T06:18:28.530Z,17.73
2023-03-29T06:20:56.165Z,18.02
2023-03-29T06:23:23.700Z,18.35
2023-03-29T06:25:53.704Z,17.38
2023-03-29T06:28:20.931Z,17.05
2023-03-29T06:30:49.414Z,17.20
2023-03-29T06:33:17.175Z,19.70
2023-03-29T06:35:46.156Z,17.58
2023-03-29T06:38:13.857Z,17.00
2023-03-29T06:40:41.258Z,17.48
2023-03-29T06:43:08.460Z,17.25
2023-03-29T06:45:37.653Z,17.35
2023-03-29T06:48:06.441Z,16.45
2023-03-29T06:50:34.348Z,16.67
2023-03-29T06:53:01.756Z,17.13
2023-03-29T06:55:28.874Z,16.77
2023-03-29T06:57:55.839Z,17.45
2023-03-29T07:00:29.906Z,17.67
2023-03-29T07:05:29.040Z,16.80
2023-03-29T07:08:08.245Z,17.65
2023-03-29T07:10:41.263Z,17.52
2023-03-29T07:13:13.123Z,17.42
2023-03-29T07:15:41.644Z,17.40
2023-03-29T07:18:09.784Z,17.58
2023-03-29T07:20:39.036Z,17.98
2023-03-29T07:23:07.047Z,16.85
2023-03-29T07:25:34.163Z,17.40
2023-03-29T07:28:01.647Z,17.45
2023-03-29T07:30:31.891Z,18.23
2023-03-29T07:32:59.854Z,18.05
2023-03-29T07:35:27.503Z,19.25
2023-03-29T07:37:55.954Z,18.00
2023-03-29T07:40:24.476Z,21.08
2023-03-29T07:42:54.177Z,18.90
2023-03-29T07:45:26.474Z,17.42
2023-03-29T07:47:57.687Z,18.27
2023-03-29T07:50:25.530Z,17.55
2023-03-29T07:52:52.886Z,19.38
2023-03-29T07:55:20.124Z,17.95
2023-03-29T07:57:48.642Z,18.88
2023-03-29T08:00:16.678Z,18.30
2023-03-29T08:02:45.591Z,18.50
2023-03-29T08:05:16.325Z,17.88
2023-03-29T08:07:47.084Z,18.55
2023-03-29T08:10:17.131Z,17.75
2023-03-29T08:12:45.855Z,17.70
2023-03-29T08:15:13.378Z,17.42
2023-03-29T08:17:40.952Z,17.15
2023-03-29T08:20:11.180Z,17.13
2023-03-29T08:22:38.553Z,17.52
2023-03-29T08:25:07.809Z,16.52
2023-03-29T08:27:35.417Z,16.60
2023-03-29T08:30:03.254Z,16.08
2023-03-29T08:32:30.286Z,15.45
2023-03-29T08:34:57.287Z,15.43
2023-03-29T08:37:25.925Z,15.60
2023-03-29T08:39:53.208Z,15.07
2023-03-29T08:42:29.324Z,14.88
2023-03-29T08:45:06.442Z,15.57
2023-03-29T08:48:20.983Z,16.10
2023-03-29T08:50:52.911Z,16.05
2023-03-29T08:53:23.188Z,15.68
2023-03-29T08:55:51.711Z,15.88
2023-03-29T08:58:24.588Z,16.08
2023-03-29T09:00:59.345Z,16.23
2023-03-29T09:03:41.925Z,15.43
2023-03-29T09:06:11.263Z,15.60
2023-03-29T09:08:45.373Z,14.80
2023-03-29T09:11:24.394Z,14.82
2023-03-29T09:14:12.365Z,14.50
2023-03-29T09:17:36.138Z,14.77
2023-03-29T09:20:21.125Z,14.25
2023-03-29T09:23:07.126Z,14.68
2023-03-29T09:26:08.369Z,14.20
2023-03-29T09:28:40.868Z,14.77
2023-03-29T09:31:16.813Z,15.10
2023-03-29T09:33:49.815Z,15.60
2023-03-29T09:36:34.409Z,15.07
2023-03-29T09:39:02.552Z,15.55
2023-03-29T09:41:50.727Z,15.25
2023-03-29T09:44:30.850Z,14.27
2023-03-29T09:47:13.479Z,14.60
2023-03-29T09:49:44.443Z,15.13
2023-03-29T09:52:14.789Z,14.70
2023-03-29T09:54:41.765Z,15.02
2023-03-29T09:57:17.904Z,14.30
2023-03-29T09:59:46.981Z,13.30
2023-03-29T10:02:14.965Z,14.63
2023-03-29T10:04:43.068Z,14.30
2023-03-29T10:07:18.949Z,13.88
2023-03-29T10:09:46.876Z,13.85
2023-03-29T10:12:14.883Z,13.88
2023-03-29T10:14:46.125Z,13.85
2023-03-29T10:17:26.143Z,13.73
2023-03-29T10:19:57.904Z,13.50
2023-03-29T10:22:27.915Z,13.93
2023-03-29T10:24:57.353Z,14.20
2023-03-29T10:27:30.804Z,13.60
2023-03-29T10:30:00.194Z,13.73
2023-03-29T10:32:37.781Z,15.20
2023-03-29T10:35:38.329Z,14.38
2023-03-29T10:38:22.979Z,13.50
2023-03-29T10:43:42.997Z,13.73
2023-03-29T10:46:15.326Z,13.68
2023-03-29T10:48:47.656Z,13.98
2023-03-29T10:51:15.561Z,14.10
2023-03-29T10:53:42.646Z,14.15
2023-03-29T10:56:40.389Z,13.95
2023-03-29T10:59:35.273Z,13.85
2023-03-29T11:02:14.593Z,14.27
2023-03-29T11:05:15.817Z,14.18
2023-03-29T11:07:48.870Z,13.85
2023-03-29T11:10:42.502Z,14.00
2023-03-29T11:13:17.565Z,14.40
2023-03-29T11:16:05.887Z,14.25
2023-03-29T11:18:51.043Z,14.23
2023-03-29T11:21:21.260Z,14.85
2023-03-29T11:24:17.754Z,14.70
2023-03-29T11:26:59.769Z,14.00
2023-03-29T11:29:57.150Z,14.20
2023-03-29T11:32:53.395Z,14.60
2023-03-29T11:35:23.610Z,14.32
2023-03-29T11:38:19.153Z,14.32
2023-03-29T11:40:58.586Z,14.18
2023-03-29T11:43:37.071Z,14.23
2023-03-29T11:46:38.020Z,13.90
2023-03-29T11:49:17.091Z,14.65
2023-03-29T11:52:04.286Z,14.10
2023-03-29T11:54:41.170Z,14.20
2023-03-29T11:57:31.176Z,14.52
2023-03-29T12:00:16.098Z,13.90
2023-03-29T12:02:51.009Z,13.80
2023-03-29T12:05:27.532Z,14.10
2023-03-29T12:08:08.452Z,14.18
2023-03-29T12:10:41.242Z,13.90
2023-03-29T12:13:39.314Z,14.35
2023-03-29T12:16:11.555Z,14.75
2023-03-29T12:18:45.907Z,14.35
2023-03-29T12:21:24.826Z,14.38
2023-03-29T12:23:53.129Z,13.63
2023-03-29T12:26:46.810Z,14.10
2023-03-29T12:29:16.748Z,13.82
2023-03-29T12:32:30.541Z,14.35
2023-03-29T12:35:03.521Z,13.90
2023-03-29T12:37:51.178Z,13.93
2023-03-29T12:40:25.403Z,13.65
2023-03-29T12:45:37.442Z,13.75
2023-03-29T12:48:06.571Z,13.52
2023-03-29T12:50:35.130Z,13.82
2023-03-29T12:53:22.279Z,14.93
2023-03-29T12:56:17.899Z,14.00
2023-03-29T12:59:16.532Z,13.52
2023-03-29T13:02:12.667Z,13.70
2023-03-29T13:04:57.709Z,14.20
2023-03-29T13:07:27.456Z,13.73
2023-03-29T13:09:57.300Z,13.77
2023-03-29T13:12:39.505Z,14.55
2023-03-29T13:15:22.189Z,13.98
2023-03-29T13:18:17.827Z,14.48
2023-03-29T13:21:16.514Z,14.55
2023-03-29T13:23:46.675Z,14.52
2023-03-29T13:26:25.395Z,14.45
2023-03-29T13:29:05.282Z,14.70
2023-03-29T13:31:36.363Z,16.13
2023-03-29T13:34:45.305Z,14.50
2023-03-29T13:37:37.508Z,14.25
2023-03-29T13:40:31.621Z,13.63
2023-03-29T13:43:19.295Z,14.33
2023-03-29T13:46:05.817Z,14.75
2023-03-29T13:48:52.899Z,14.65
2023-03-29T13:51:43.001Z,17.33
2023-03-29T13:54:27.278Z,15.30
2023-03-29T13:57:11.353Z,14.77
2023-03-29T13:59:50.778Z,15.20
2023-03-29T14:02:41.879Z,14.75
2023-03-29T14:05:12.599Z,14.73
2023-03-29T14:07:44.824Z,14.40
2023-03-29T14:10:17.257Z,14.48
2023-03-29T14:12:45.693Z,16.05
2023-03-29T14:15:23.895Z,15.43
2023-03-29T14:18:00.327Z,14.88
2023-03-29T14:20:28.819Z,14.90
2023-03-29T14:22:55.934Z,14.60
2023-03-29T14:25:23.115Z,14.75
2023-03-29T14:27:50.082Z,15.07
2023-03-29T14:30:28.491Z,14.82
2023-03-29T14:32:56.881Z,14.55
2023-03-29T14:35:30.838Z,14.70
2023-03-29T14:37:59.364Z,14.95
2023-03-29T14:40:27.854Z,16.48
2023-03-29T14:42:55.763Z,16.95
2023-03-29T14:45:25.894Z,19.15
2023-03-29T14:47:53.189Z,16.25
2023-03-29T14:50:26.559Z,15.60
2023-03-29T14:52:54.129Z,21.33
2023-03-29T14:55:24.001Z,19.73
2023-03-29T14:57:54.346Z,19.60
2023-03-29T15:00:42.559Z,16.27
2023-03-29T15:03:16.958Z,15.52
2023-03-29T15:05:52.148Z,15.70
2023-03-29T15:08:29.713Z,15.90
2023-03-29T15:10:57.022Z,16.02
2023-03-29T15:13:25.441Z,15.40
2023-03-29T15:15:59.689Z,15.57
2023-03-29T15:20:55.721Z,15.18
2023-03-29T15:23:34.163Z,15.52
2023-03-29T15:26:12.982Z,15.65
2023-03-29T15:29:00.479Z,15.40
2023-03-29T15:31:34.772Z,14.40
2023-03-29T15:34:14.126Z,14.98
2023-03-29T15:36:43.844Z,16.05
2023-03-29T15:39:16.238Z,15.20
2023-03-29T15:41:45.095Z,16.63
2023-03-29T15:44:15.063Z,30.83
2023-03-29T15:46:42.031Z,28.55
2023-03-29T15:49:13.182Z,16.10
2023-03-29T15:51:40.554Z,15.25
2023-03-29T15:54:07.995Z,15.57
2023-03-29T15:56:43.774Z,15.38
2023-03-29T15:59:12.350Z,15.63
2023-03-29T16:01:39.598Z,16.35
2023-03-29T16:04:12.193Z,14.77
2023-03-29T16:06:39.194Z,15.23
2023-03-29T16:09:07.215Z,14.88
2023-03-29T16:11:34.949Z,15.00
2023-03-29T16:14:01.985Z,15.07
2023-03-29T16:16:29.077Z,15.38
2023-03-29T16:18:56.169Z,15.60
2023-03-29T16:21:23.486Z,15.57
2023-03-29T16:23:51.480Z,15.35
2023-03-29T16:26:18.540Z,15.52
2023-03-29T16:28:45.566Z,16.38
2023-03-29T16:31:13.637Z,16.75
2023-03-29T16:33:41.590Z,16.30
2023-03-29T16:36:10.181Z,15.27
2023-03-29T16:38:37.222Z,16.05
2023-03-29T16:41:04.482Z,16.27
2023-03-29T16:43:31.720Z,16.00
2023-03-29T16:45:58.739Z,16.20
2023-03-29T16:48:27.207Z,16.10
2023-03-29T16:50:54.231Z,17.00
2023-03-29T16:53:21.749Z,16.80
2023-03-29T16:55:48.876Z,15.88
2023-03-29T16:58:16.356Z,16.10
2023-03-29T17:00:46.349Z,15.95
2023-03-29T17:03:14.423Z,14.98
2023-03-29T17:05:53.963Z,15.73
2023-03-29T17:08:22.069Z,16.23
2023-03-29T17:10:53.720Z,17.40
2023-03-29T17:13:21.382Z,17.40
2023-03-29T17:15:52.242Z,17.85
2023-03-29T17:18:23.745Z,17.90
2023-03-29T17:20:51.589Z,17.50
2023-03-29T17:23:19.258Z,17.65
2023-03-29T17:25:46.282Z,17.08
2023-03-29T17:28:13.733Z,17.77
2023-03-29T17:30:40.903Z,17.63
2023-03-29T17:33:08.220Z,17.70
2023-03-29T17:35:35.295Z,17.75
2023-03-29T17:38:03.006Z,18.65
2023-03-29T17:40:29.998Z,21.23
2023-03-29T17:42:56.967Z,18.60
2023-03-29T17:45:23.998Z,16.45
2023-03-29T17:47:51.082Z,15.68
2023-03-29T17:50:18.197Z,16.30
2023-03-29T17:52:45.345Z,15.68
2023-03-29T17:55:13.799Z,15.82
2023-03-29T17:57:41.605Z,15.98
2023-03-29T18:00:12.335Z,15.77
2023-03-29T18:02:40.569Z,15.75
2023-03-29T18:05:09.506Z,16.00
2023-03-29T18:07:37.050Z,16.45
2023-03-29T18:10:04.812Z,15.93
2023-03-29T18:12:31.811Z,15.88
2023-03-29T18:14:59.519Z,16.08
2023-03-29T18:17:29.374Z,15.60
2023-03-29T18:19:56.692Z,17.77
2023-03-29T18:22:24.235Z,16.48
2023-03-29T18:24:51.312Z,16.33
2023-03-29T18:27:18.816Z,15.35
2023-03-29T18:29:45.973Z,15.65
2023-03-29T18:32:13.132Z,15.75
2023-03-29T18:34:40.436Z,16.00
2023-03-29T18:37:09.332Z,15.98
2023-03-29T18:39:36.346Z,16.00
2023-03-29T18:42:03.279Z,16.10
2023-03-29T18:44:30.320Z,16.10
2023-03-29T18:46:57.601Z,17.13
2023-03-29T18:49:25.890Z,16.67
2023-03-29T18:51:54.414Z,16.80
2023-03-29T18:54:21.739Z,16.33
2023-03-29T18:56:48.782Z,16.13
2023-03-29T18:59:17.196Z,16.30
2023-03-29T19:01:44.370Z,16.50
2023-03-29T19:04:11.566Z,16.15
2023-03-29T19:06:38.827Z,16.67
2023-03-29T19:09:05.881Z,16.85
2023-03-29T19:11:33.446Z,16.70
2023-03-29T19:14:00.528Z,16.70
2023-03-29T19:16:27.609Z,16.85
2023-03-29T19:18:57.316Z,16.80
2023-03-29T19:21:24.410Z,16.73
2023-03-29T19:23:52.979Z,17.80
2023-03-29T19:26:20.037Z,17.15
2023-03-29T19:28:47.014Z,17.48
2023-03-29T19:31:14.038Z,17.42
2023-03-29T19:33:41.336Z,17.45
2023-03-29T19:36:08.539Z,17.08
2023-03-29T19:38:36.219Z,17.38
2023-03-29T19:41:07.736Z,17.10
2023-03-29T19:43:35.428Z,17.45
2023-03-29T19:46:13.526Z,17.63
2023-03-29T19:48:40.695Z,17.75
2023-03-29T19:51:08.107Z,16.98
2023-03-29T19:53:38.423Z,17.70
2023-03-29T19:56:07.853Z,17.13
2023-03-29T19:58:37.565Z,17.58
2023-03-29T20:01:04.791Z,17.45
2023-03-29T20:03:34.333Z,17.10
2023-03-29T20:06:01.988Z,16.95
2023-03-29T20:08:28.932Z,17.40
2023-03-29T20:11:10.434Z,17.65
2023-03-29T20:13:41.196Z,17.55
2023-03-29T20:16:10.915Z,17.40
2023-03-29T20:18:38.422Z,17.60
2023-03-29T20:21:07.391Z,17.63
2023-03-29T20:23:34.844Z,18.20
2023-03-29T20:26:01.867Z,18.27
2023-03-29T20:28:29.378Z,17.77
2023-03-29T20:30:56.276Z,18.13
2023-03-29T20:33:24.062Z,18.08
2023-03-29T20:35:51.087Z,18.00
2023-03-29T20:38:18.136Z,18.13
2023-03-29T20:40:45.056Z,17.85
2023-03-29T20:43:13.726Z,18.60
2023-03-29T20:45:52.571Z,17.75
2023-03-29T20:48:23.599Z,17.60
2023-03-29T20:50:51.508Z,18.30
2023-03-29T20:53:20.662Z,18.10
2023-03-29T20:55:48.248Z,18.60
2023-03-29T20:58:15.855Z,18.40
2023-03-29T21:00:43.958Z,18.10
2023-03-29T21:03:11.415Z,17.92
2023-03-29T21:05:39.019Z,18.63
2023-03-29T21:08:06.406Z,17.48
2023-03-29T21:10:33.498Z,18.23
2023-03-29T21:13:02.729Z,18.08
2023-03-29T21:15:31.104Z,18.60
2023-03-29T21:17:58.351Z,19.00
2023-03-29T21:20:25.511Z,18.85
2023-03-29T21:22:52.516Z,19.95
2023-03-29T21:25:19.732Z,20.25
2023-03-29T21:27:46.793Z,19.67
2023-03-29T21:30:14.220Z,19.42
2023-03-29T21:32:41.434Z,19.13
2023-03-29T21:35:09.543Z,19.63
2023-03-29T21:37:36.706Z,18.73
2023-03-29T21:40:08.377Z,18.65
2023-03-29T21:42:35.578Z,19.17
2023-03-29T21:45:03.235Z,18.75
2023-03-29T21:47:30.680Z,18.83
2023-03-29T21:49:57.674Z,18.80
2023-03-29T21:52:24.678Z,18.98
2023-03-29T21:54:51.647Z,18.15
2023-03-29T21:57:18.753Z,18.17
2023-03-29T21:59:45.917Z,18.15
2023-03-29T22:02:12.951Z,18.05
2023-03-29T22:04:40.147Z,18.33
2023-03-29T22:07:08.365Z,18.00
2023-03-29T22:09:35.555Z,18.23
2023-03-29T22:12:03.905Z,18.52
2023-03-29T22:14:35.296Z,18.48
2023-03-29T22:17:06.239Z,18.70
2023-03-29T22:19:39.159Z,18.60
2023-03-29T22:22:06.755Z,18.52
2023-03-29T22:24:34.011Z,18.92
2023-03-29T22:27:01.586Z,18.42
2023-03-29T22:29:28.569Z,18.65
2023-03-29T22:31:55.664Z,18.90
2023-03-29T22:34:22.626Z,18.88
2023-03-29T22:36:50.615Z,18.77
2023-03-29T22:39:17.620Z,19.10
2023-03-29T22:41:44.571Z,18.83
2023-03-29T22:44:11.921Z,19.55
2023-03-29T22:46:38.961Z,19.20
2023-03-29T22:49:06.145Z,18.60
2023-03-29T22:51:33.087Z,19.33
2023-03-29T22:54:00.092Z,18.75
2023-03-29T22:56:27.326Z,19.00
2023-03-29T22:58:54.347Z,18.80
2023-03-29T23:01:21.690Z,18.52
2023-03-29T23:03:48.701Z,18.25
2023-03-29T23:06:16.199Z,18.02
2023-03-29T23:08:43.182Z,17.67
2023-03-29T23:11:10.260Z,18.02
2023-03-29T23:13:37.333Z,18.52
2023-03-29T23:16:05.023Z,17.52
2023-03-29T23:18:34.946Z,17.95
2023-03-29T23:21:02.607Z,18.13
2023-03-29T23:23:29.783Z,17.85
2023-03-29T23:25:56.791Z,18.08
2023-03-29T23:28:27.436Z,17.95
2023-03-29T23:31:02.847Z,18.00
2023-03-29T23:33:33.727Z,17.90
2023-03-29T23:36:04.909Z,17.75
2023-03-29T23:38:34.328Z,18.02
2023-03-29T23:41:03.423Z,17.88
2023-03-29T23:43:35.556Z,17.80
2023-03-29T23:46:05.183Z,17.80
2023-03-29T23:48:32.834Z,17.50
2023-03-29T23:51:01.310Z,17.58
2023-03-29T23:53:29.540Z,17.10
2023-03-29T23:55:58.610Z,16.90
2023-03-29T23:58:25.648Z,16.95
